createdAt,value
2022-10-12T00:05:06.525Z,8.39
2022-10-12T00:10:10.914Z,7.68
2022-10-12T00:15:17.330Z,7.98
2022-10-12T00:20:23.554Z,8.37
2022-10-12T00:25:29.616Z,7.72
2022-10-12T00:30:35.865Z,7.82
2022-10-12T00:35:42.063Z,7.92
2022-10-12T00:40:48.237Z,7.73
2022-10-12T00:45:54.308Z,7.59
2022-10-12T00:51:00.588Z,7.16
2022-10-12T00:56:09.476Z,7.70
2022-10-12T01:01:15.667Z,7.17
2022-10-12T01:06:21.714Z,7.27
2022-10-12T01:11:28.037Z,6.80
2022-10-12T01:16:34.107Z,7.30
2022-10-12T01:26:41.504Z,6.92
2022-10-12T01:31:48.056Z,7.22
2022-10-12T01:36:54.458Z,6.61
2022-10-12T01:42:00.704Z,6.30
2022-10-12T01:47:06.809Z,6.07
2022-10-12T01:52:13.341Z,6.88
2022-10-12T01:57:19.728Z,6.38
2022-10-12T02:02:26.010Z,6.85
2022-10-12T02:07:32.069Z,6.41
2022-10-12T02:12:38.559Z,6.12
2022-10-12T02:17:44.621Z,6.35
2022-10-12T02:22:50.953Z,6.42
2022-10-12T02:27:57.331Z,6.20
2022-10-12T02:33:03.615Z,5.71
2022-10-12T02:38:10.038Z,5.75
2022-10-12T02:43:17.050Z,5.67
2022-10-12T02:48:25.566Z,5.96
2022-10-12T02:53:31.779Z,5.54
2022-10-12T02:58:37.868Z,5.42
2022-10-12T03:03:44.056Z,5.50
2022-10-12T03:08:50.503Z,5.27
2022-10-12T03:13:57.051Z,4.78
2022-10-12T03:19:03.223Z,5.04
2022-10-12T03:24:09.706Z,5.08
2022-10-12T03:29:16.154Z,5.22
2022-10-12T03:34:22.635Z,5.09
2022-10-12T03:39:28.714Z,5.28
2022-10-12T03:44:34.897Z,4.64
2022-10-12T03:49:41.031Z,4.70
2022-10-12T03:54:47.208Z,4.97
2022-10-12T03:59:53.304Z,5.38
2022-10-12T04:04:59.831Z,4.66
2022-10-12T04:10:06.765Z,4.59
2022-10-12T04:15:12.967Z,4.56
2022-10-12T04:20:19.022Z,4.37
2022-10-12T04:25:29.966Z,5.04
2022-10-12T04:30:30.911Z,4.42
2022-10-12T04:35:37.216Z,5.07
2022-10-12T04:40:43.280Z,4.58
2022-10-12T04:45:49.459Z,4.62
2022-10-12T04:50:55.559Z,4.69
2022-10-12T04:56:01.845Z,4.90
2022-10-12T05:01:08.772Z,4.47
2022-10-12T05:06:15.230Z,4.80
2022-10-12T05:11:21.612Z,4.64
2022-10-12T05:16:27.898Z,4.65
2022-10-12T05:21:33.934Z,4.61
2022-10-12T05:26:40.139Z,4.53
2022-10-12T05:31:46.290Z,4.56
2022-10-12T05:36:52.843Z,4.62
2022-10-12T05:41:58.902Z,4.96
2022-10-12T05:47:05.098Z,4.77
2022-10-12T05:52:11.152Z,5.12
2022-10-12T05:57:17.336Z,5.26
2022-10-12T06:02:23.424Z,4.59
2022-10-12T06:07:29.642Z,5.08
2022-10-12T06:12:36.052Z,4.92
2022-10-12T06:17:41.507Z,5.03
2022-10-12T06:22:47.583Z,5.02
2022-10-12T06:27:53.794Z,4.94
2022-10-12T06:32:59.900Z,5.01
2022-10-12T06:38:06.435Z,4.97
2022-10-12T06:43:12.862Z,5.15
2022-10-12T06:48:19.148Z,5.46
2022-10-12T06:53:25.169Z,4.97
2022-10-12T06:58:31.878Z,5.20
2022-10-12T07:03:37.955Z,5.53
2022-10-12T07:08:44.122Z,5.53
2022-10-12T07:13:50.187Z,5.62
2022-10-12T07:18:56.357Z,6.83
2022-10-12T07:24:02.435Z,7.71
2022-10-12T07:29:08.699Z,7.56
2022-10-12T07:34:14.885Z,7.89
2022-10-12T07:39:21.061Z,7.74
2022-10-12T07:44:27.240Z,7.35
2022-10-12T07:49:33.436Z,8.02
2022-10-12T07:54:39.864Z,7.65
2022-10-12T07:59:46.041Z,7.86
2022-10-12T08:04:52.099Z,7.45
2022-10-12T08:09:58.248Z,7.06
2022-10-12T08:15:04.401Z,8.22
2022-10-12T08:20:10.589Z,7.70
2022-10-12T08:25:16.682Z,6.91
2022-10-12T08:30:22.986Z,6.73
2022-10-12T08:35:29.156Z,5.96
2022-10-12T08:40:35.330Z,5.98
2022-10-12T08:45:41.790Z,6.11
2022-10-12T08:50:47.995Z,6.14
2022-10-12T08:55:54.073Z,6.82
2022-10-12T09:01:00.368Z,6.39
2022-10-12T09:06:06.427Z,6.22
2022-10-12T09:11:12.636Z,6.35
2022-10-12T09:16:18.672Z,5.79
2022-10-12T09:21:25.688Z,5.59
2022-10-12T09:26:31.751Z,5.23
2022-10-12T09:31:37.926Z,4.94
2022-10-12T09:36:44.060Z,5.40
2022-10-12T09:41:50.447Z,5.11
2022-10-12T09:46:56.506Z,4.18
2022-10-12T09:52:02.677Z,4.13
2022-10-12T09:57:08.784Z,4.28
2022-10-12T10:02:15.114Z,3.73
2022-10-12T10:07:21.156Z,4.47
2022-10-12T10:12:27.679Z,4.47
2022-10-12T10:17:33.710Z,3.21
2022-10-12T10:22:39.894Z,2.50
2022-10-12T10:27:45.965Z,2.99
2022-10-12T10:32:52.154Z,3.41
2022-10-12T10:37:58.227Z,3.05
2022-10-12T10:43:04.384Z,2.79
2022-10-12T10:48:10.465Z,2.79
2022-10-12T10:53:16.671Z,2.52
2022-10-12T10:58:22.778Z,2.63
2022-10-12T11:03:28.905Z,2.87
2022-10-12T11:08:34.992Z,2.87
2022-10-12T11:13:41.235Z,2.65
2022-10-12T11:18:47.675Z,2.65
2022-10-12T11:23:53.857Z,2.39
2022-10-12T11:29:00.034Z,2.29
2022-10-12T11:34:10.041Z,2.31
2022-10-12T11:39:11.883Z,2.24
2022-10-12T11:44:18.041Z,2.25
2022-10-12T11:49:24.130Z,2.39
2022-10-12T11:54:30.323Z,2.12
2022-10-12T11:59:37.226Z,2.30
2022-10-12T12:04:44.211Z,2.21
2022-10-12T12:09:50.731Z,2.66
2022-10-12T12:14:54.894Z,2.32
2022-10-12T12:20:01.016Z,2.51
2022-10-12T12:25:07.170Z,2.10
2022-10-12T12:30:13.234Z,2.19
2022-10-12T12:35:19.411Z,2.28
2022-10-12T12:40:25.444Z,2.11
2022-10-12T12:45:31.653Z,2.10
2022-10-12T12:50:37.726Z,2.24
2022-10-12T12:55:44.020Z,2.14
2022-10-12T13:00:50.126Z,2.34
2022-10-12T13:05:56.294Z,2.40
2022-10-12T13:11:02.379Z,2.40
2022-10-12T13:16:08.557Z,2.24
2022-10-12T13:21:14.703Z,2.51
2022-10-12T13:26:20.886Z,2.13
2022-10-12T13:31:26.982Z,1.98
2022-10-12T13:36:33.792Z,2.37
2022-10-12T13:41:39.852Z,2.23
2022-10-12T13:46:46.880Z,2.31
2022-10-12T13:51:52.949Z,2.18
2022-10-12T13:56:59.108Z,2.57
2022-10-12T14:02:05.224Z,2.50
2022-10-12T14:07:27.186Z,2.87
2022-10-12T14:12:33.345Z,2.53
2022-10-12T14:17:39.540Z,2.46
2022-10-12T14:22:46.464Z,2.50
2022-10-12T14:27:53.681Z,2.34
2022-10-12T14:33:00.038Z,2.75
2022-10-12T14:38:05.974Z,2.43
2022-10-12T14:43:12.031Z,2.47
2022-10-12T14:48:18.207Z,2.76
2022-10-12T14:53:24.313Z,2.42
2022-10-12T14:58:30.486Z,2.09
2022-10-12T15:03:37.294Z,2.55
2022-10-12T15:08:43.789Z,2.60
2022-10-12T15:13:49.869Z,2.87
2022-10-12T15:18:56.431Z,2.17
2022-10-12T15:24:02.485Z,2.33
2022-10-12T15:29:08.682Z,2.50
2022-10-12T15:34:14.758Z,2.51
2022-10-12T15:39:21.310Z,2.45
2022-10-12T15:44:27.391Z,2.38
2022-10-12T15:45:41.929Z,2.29
2022-10-12T15:50:48.226Z,2.28
2022-10-12T15:55:54.275Z,2.24
2022-10-12T16:01:00.855Z,2.18
2022-10-12T16:06:06.978Z,2.57
2022-10-12T16:11:13.254Z,2.33
2022-10-12T16:16:19.450Z,2.31
2022-10-12T16:21:25.768Z,2.23
2022-10-12T16:26:31.896Z,2.57
2022-10-12T16:31:38.205Z,2.57
2022-10-12T16:36:44.197Z,2.65
2022-10-12T16:41:53.430Z,2.91
2022-10-12T16:46:59.488Z,2.73
2022-10-12T16:52:05.686Z,2.92
2022-10-12T16:57:11.765Z,3.57
2022-10-12T17:02:18.095Z,3.45
2022-10-12T17:07:24.146Z,3.67
2022-10-12T17:12:30.467Z,3.87
2022-10-12T17:17:36.571Z,4.41
2022-10-12T17:22:42.807Z,3.97
2022-10-12T17:27:48.946Z,4.42
2022-10-12T17:32:55.141Z,4.49
2022-10-12T17:38:01.189Z,4.71
2022-10-12T17:43:07.500Z,4.64
2022-10-12T17:48:13.581Z,4.91
2022-10-12T17:53:19.807Z,5.84
2022-10-12T17:58:25.833Z,6.52
2022-10-12T18:03:35.111Z,7.40
2022-10-12T18:08:41.192Z,8.37
2022-10-12T18:13:47.577Z,8.83
2022-10-12T18:18:54.021Z,7.92
2022-10-12T18:24:00.157Z,7.61
2022-10-12T18:29:06.330Z,8.48
2022-10-12T18:34:12.484Z,9.21
2022-10-12T18:39:18.533Z,9.59
2022-10-12T18:44:25.087Z,8.92
2022-10-12T18:49:31.204Z,9.92
2022-10-12T18:54:37.345Z,9.43
2022-10-12T18:59:43.420Z,9.85
2022-10-12T19:04:49.690Z,9.70
2022-10-12T19:09:56.285Z,10.01
2022-10-12T19:15:02.665Z,12.06
2022-10-12T19:20:08.701Z,11.09
2022-10-12T19:25:15.273Z,10.70
2022-10-12T19:30:21.409Z,10.36
2022-10-12T19:35:27.729Z,10.66
2022-10-12T19:40:34.616Z,10.04
2022-10-12T19:45:40.808Z,9.65
2022-10-12T19:50:46.997Z,9.88
2022-10-12T19:55:53.128Z,9.72
2022-10-12T20:00:59.312Z,9.17
2022-10-12T20:06:05.659Z,9.52
2022-10-12T20:11:16.977Z,8.81
2022-10-12T20:16:17.498Z,8.86
2022-10-12T20:21:23.522Z,8.76
2022-10-12T20:26:29.729Z,8.81
2022-10-12T20:31:35.847Z,8.25
2022-10-12T20:36:42.315Z,8.52
2022-10-12T20:41:48.740Z,8.62
2022-10-12T20:46:56.337Z,8.87
2022-10-12T20:52:02.449Z,8.77
2022-10-12T20:57:08.644Z,8.91
2022-10-12T21:02:14.747Z,8.37
2022-10-12T21:07:20.923Z,8.42
2022-10-12T21:12:27.039Z,8.47
2022-10-12T21:17:33.275Z,8.34
2022-10-12T21:22:39.328Z,7.93
2022-10-12T21:23:53.989Z,8.71
2022-10-12T21:29:00.186Z,8.45
2022-10-12T21:34:06.284Z,7.68
2022-10-12T21:39:12.807Z,7.25
2022-10-12T21:44:19.012Z,7.12
2022-10-12T21:49:25.112Z,6.17
2022-10-12T21:54:31.214Z,6.70
2022-10-12T21:59:37.610Z,6.00
2022-10-12T22:04:43.766Z,6.05
2022-10-12T22:09:49.880Z,6.21
2022-10-12T22:14:56.059Z,6.05
2022-10-12T22:20:02.512Z,6.03
2022-10-12T22:25:08.564Z,6.08
2022-10-12T22:30:14.881Z,6.17
2022-10-12T22:35:21.284Z,5.91
2022-10-12T22:40:27.584Z,6.39
2022-10-12T22:45:33.728Z,6.34
2022-10-12T22:50:39.899Z,6.33
2022-10-12T22:55:45.954Z,6.15
2022-10-12T23:00:52.430Z,5.88
2022-10-12T23:05:58.872Z,6.09
2022-10-12T23:11:05.422Z,6.70
2022-10-12T23:16:11.810Z,6.44
2022-10-12T23:21:18.156Z,6.75
2022-10-12T23:26:24.673Z,6.56
2022-10-12T23:31:31.168Z,6.54
2022-10-12T23:36:37.245Z,6.52
2022-10-12T23:42:42.081Z,7.57
2022-10-12T23:47:48.508Z,6.85
2022-10-12T23:52:54.732Z,6.75
2022-10-12T23:58:01.299Z,6.75
